sensor_id;sensor_type;location;lat;lon;timestamp;P1;durP1;ratioP1;P2;durP2;ratioP2
4575;SDS011;2300;51.874;8.430;2023-01-10T00:00:19;49.60;;;46.67;;
4575;SDS011;2300;51.874;8.430;2023-01-10T00:02:46;44.47;;;41.83;;
4575;SDS011;2300;51.874;8.430;2023-01-10T00:05:13;48.37;;;45.50;;
4575;SDS011;2300;51.874;8.430;2023-01-10T00:07:39;46.83;;;44.07;;
4575;SDS011;2300;51.874;8.430;2023-01-10T00:10:06;45.03;;;42.23;;
4575;SDS011;2300;51.874;8.430;2023-01-10T00:12:33;30.80;;;28.73;;
4575;SDS011;2300;51.874;8.430;2023-01-10T00:15:19;46.67;;;43.90;;
4575;SDS011;2300;51.874;8.430;2023-01-10T00:17:46;14.00;;;10.53;;
4575;SDS011;2300;51.874;8.430;2023-01-10T00:20:12;13.93;;;10.67;;
4575;SDS011;2300;51.874;8.430;2023-01-10T00:22:41;14.73;;;12.77;;
4575;SDS011;2300;51.874;8.430;2023-01-10T00:25:08;16.10;;;11.40;;
4575;SDS011;2300;51.874;8.430;2023-01-10T00:27:34;14.33;;;12.80;;
4575;SDS011;2300;51.874;8.430;2023-01-10T00:30:00;22.43;;;15.67;;
4575;SDS011;2300;51.874;8.430;2023-01-10T00:32:37;22.23;;;14.53;;
4575;SDS011;2300;51.874;8.430;2023-01-10T00:35:04;16.97;;;14.80;;
4575;SDS011;2300;51.874;8.430;2023-01-10T00:37:32;18.03;;;12.43;;
4575;SDS011;2300;51.874;8.430;2023-01-10T00:39:59;14.67;;;12.13;;
4575;SDS011;2300;51.874;8.430;2023-01-10T00:42:25;16.70;;;14.03;;
4575;SDS011;2300;51.874;8.430;2023-01-10T00:45:09;20.73;;;18.03;;
4575;SDS011;2300;51.874;8.430;2023-01-10T00:47:37;19.77;;;17.50;;
4575;SDS011;2300;51.874;8.430;2023-01-10T00:50:04;17.83;;;15.77;;
4575;SDS011;2300;51.874;8.430;2023-01-10T00:52:32;22.67;;;18.30;;
4575;SDS011;2300;51.874;8.430;2023-01-10T00:54:59;24.17;;;21.07;;
4575;SDS011;2300;51.874;8.430;2023-01-10T00:57:25;30.07;;;26.60;;
4575;SDS011;2300;51.874;8.430;2023-01-10T00:59:51;34.20;;;31.10;;
4575;SDS011;2300;51.874;8.430;2023-01-10T01:02:18;33.60;;;30.40;;
4575;SDS011;2300;51.874;8.430;2023-01-10T01:04:45;37.57;;;34.23;;
4575;SDS011;2300;51.874;8.430;2023-01-10T01:07:12;32.30;;;29.07;;
4575;SDS011;2300;51.874;8.430;2023-01-10T01:09:38;36.53;;;32.03;;
4575;SDS011;2300;51.874;8.430;2023-01-10T01:12:25;38.63;;;35.20;;
4575;SDS011;2300;51.874;8.430;2023-01-10T01:14:52;36.40;;;31.80;;
4575;SDS011;2300;51.874;8.430;2023-01-10T01:17:18;40.33;;;36.27;;
4575;SDS011;2300;51.874;8.430;2023-01-10T01:19:47;41.63;;;31.83;;
4575;SDS011;2300;51.874;8.430;2023-01-10T01:22:13;43.90;;;39.70;;
4575;SDS011;2300;51.874;8.430;2023-01-10T01:24:40;49.63;;;44.87;;
4575;SDS011;2300;51.874;8.430;2023-01-10T01:27:06;43.07;;;38.67;;
4575;SDS011;2300;51.874;8.430;2023-01-10T01:29:33;37.67;;;30.50;;
4575;SDS011;2300;51.874;8.430;2023-01-10T01:31:59;41.77;;;27.87;;
4575;SDS011;2300;51.874;8.430;2023-01-10T01:34:25;39.20;;;27.03;;
4575;SDS011;2300;51.874;8.430;2023-01-10T01:36:53;39.00;;;31.87;;
4575;SDS011;2300;51.874;8.430;2023-01-10T01:39:21;41.53;;;30.87;;
4575;SDS011;2300;51.874;8.430;2023-01-10T01:41:47;139.37;;;126.47;;
4575;SDS011;2300;51.874;8.430;2023-01-10T01:44:23;135.60;;;125.30;;
4575;SDS011;2300;51.874;8.430;2023-01-10T01:46:55;48.50;;;42.13;;
4575;SDS011;2300;51.874;8.430;2023-01-10T01:49:27;51.90;;;46.63;;
4575;SDS011;2300;51.874;8.430;2023-01-10T01:52:00;55.00;;;41.60;;
4575;SDS011;2300;51.874;8.430;2023-01-10T01:54:32;72.20;;;65.97;;
4575;SDS011;2300;51.874;8.430;2023-01-10T01:57:01;76.70;;;70.10;;
4575;SDS011;2300;51.874;8.430;2023-01-10T01:59:31;82.13;;;75.63;;
4575;SDS011;2300;51.874;8.430;2023-01-10T02:02:01;136.43;;;126.50;;
4575;SDS011;2300;51.874;8.430;2023-01-10T02:04:33;99.00;;;91.20;;
4575;SDS011;2300;51.874;8.430;2023-01-10T02:07:05;94.93;;;87.63;;
4575;SDS011;2300;51.874;8.430;2023-01-10T02:09:33;83.60;;;76.67;;
4575;SDS011;2300;51.874;8.430;2023-01-10T02:12:04;133.43;;;124.93;;
4575;SDS011;2300;51.874;8.430;2023-01-10T02:14:30;65.03;;;52.53;;
4575;SDS011;2300;51.874;8.430;2023-01-10T02:16:59;55.00;;;50.07;;
4575;SDS011;2300;51.874;8.430;2023-01-10T02:19:27;72.87;;;66.60;;
4575;SDS011;2300;51.874;8.430;2023-01-10T02:25:28;54.70;;;50.13;;
4575;SDS011;2300;51.874;8.430;2023-01-10T02:34:36;38.87;;;32.63;;
4575;SDS011;2300;51.874;8.430;2023-01-10T02:37:11;41.43;;;35.40;;
4575;SDS011;2300;51.874;8.430;2023-01-10T02:39:45;37.90;;;26.37;;
4575;SDS011;2300;51.874;8.430;2023-01-10T02:42:20;26.30;;;23.60;;
4575;SDS011;2300;51.874;8.430;2023-01-10T02:44:53;38.77;;;35.57;;
4575;SDS011;2300;51.874;8.430;2023-01-10T02:47:34;30.30;;;13.20;;
4575;SDS011;2300;51.874;8.430;2023-01-10T02:50:15;28.70;;;13.90;;
4575;SDS011;2300;51.874;8.430;2023-01-10T02:52:53;26.57;;;10.00;;
4575;SDS011;2300;51.874;8.430;2023-01-10T02:55:21;39.07;;;35.03;;
4575;SDS011;2300;51.874;8.430;2023-01-10T02:58:00;28.90;;;25.80;;
4575;SDS011;2300;51.874;8.430;2023-01-10T03:00:36;26.63;;;23.17;;
4575;SDS011;2300;51.874;8.430;2023-01-10T03:03:17;22.77;;;16.77;;
4575;SDS011;2300;51.874;8.430;2023-01-10T03:05:59;29.90;;;18.77;;
4575;SDS011;2300;51.874;8.430;2023-01-10T03:08:32;25.77;;;18.93;;
4575;SDS011;2300;51.874;8.430;2023-01-10T03:11:04;23.67;;;19.63;;
4575;SDS011;2300;51.874;8.430;2023-01-10T03:13:33;28.10;;;17.93;;
4575;SDS011;2300;51.874;8.430;2023-01-10T03:16:07;30.07;;;23.17;;
4575;SDS011;2300;51.874;8.430;2023-01-10T03:18:42;34.53;;;23.00;;
4575;SDS011;2300;51.874;8.430;2023-01-10T03:21:14;34.30;;;30.67;;
4575;SDS011;2300;51.874;8.430;2023-01-10T03:23:43;27.00;;;22.10;;
4575;SDS011;2300;51.874;8.430;2023-01-10T03:26:12;37.97;;;33.23;;
4575;SDS011;2300;51.874;8.430;2023-01-10T03:28:42;28.40;;;24.77;;
4575;SDS011;2300;51.874;8.430;2023-01-10T03:31:15;25.30;;;17.80;;
4575;SDS011;2300;51.874;8.430;2023-01-10T03:33:47;30.13;;;26.90;;
4575;SDS011;2300;51.874;8.430;2023-01-10T03:36:17;33.63;;;22.80;;
4575;SDS011;2300;51.874;8.430;2023-01-10T03:38:55;33.03;;;19.13;;
4575;SDS011;2300;51.874;8.430;2023-01-10T03:41:29;30.63;;;25.17;;
4575;SDS011;2300;51.874;8.430;2023-01-10T03:47:24;33.13;;;21.00;;
4575;SDS011;2300;51.874;8.430;2023-01-10T03:50:00;31.17;;;20.57;;
4575;SDS011;2300;51.874;8.430;2023-01-10T03:52:30;38.23;;;33.83;;
4575;SDS011;2300;51.874;8.430;2023-01-10T03:55:00;32.30;;;21.13;;
4575;SDS011;2300;51.874;8.430;2023-01-10T03:57:27;48.90;;;44.07;;
4575;SDS011;2300;51.874;8.430;2023-01-10T03:59:55;55.33;;;50.37;;
4575;SDS011;2300;51.874;8.430;2023-01-10T04:02:23;49.80;;;45.40;;
4575;SDS011;2300;51.874;8.430;2023-01-10T04:04:52;55.07;;;49.97;;
4575;SDS011;2300;51.874;8.430;2023-01-10T04:07:19;60.60;;;55.27;;
4575;SDS011;2300;51.874;8.430;2023-01-10T04:09:46;51.43;;;46.43;;
4575;SDS011;2300;51.874;8.430;2023-01-10T04:12:12;50.13;;;44.90;;
4575;SDS011;2300;51.874;8.430;2023-01-10T04:14:39;55.40;;;50.27;;
4575;SDS011;2300;51.874;8.430;2023-01-10T04:17:06;66.67;;;60.97;;
4575;SDS011;2300;51.874;8.430;2023-01-10T04:19:33;79.57;;;74.00;;
4575;SDS011;2300;51.874;8.430;2023-01-10T04:21:59;68.20;;;63.10;;
4575;SDS011;2300;51.874;8.430;2023-01-10T04:24:27;50.43;;;45.77;;
4575;SDS011;2300;51.874;8.430;2023-01-10T04:26:53;86.10;;;79.97;;
4575;SDS011;2300;51.874;8.430;2023-01-10T04:29:19;78.90;;;72.37;;
4575;SDS011;2300;51.874;8.430;2023-01-10T04:31:46;52.50;;;47.70;;
4575;SDS011;2300;51.874;8.430;2023-01-10T04:34:12;78.47;;;72.83;;
4575;SDS011;2300;51.874;8.430;2023-01-10T04:36:39;62.37;;;57.77;;
4575;SDS011;2300;51.874;8.430;2023-01-10T04:39:06;73.53;;;68.50;;
4575;SDS011;2300;51.874;8.430;2023-01-10T04:41:34;79.93;;;73.63;;
4575;SDS011;2300;51.874;8.430;2023-01-10T04:44:00;30.70;;;22.53;;
4575;SDS011;2300;51.874;8.430;2023-01-10T04:46:27;32.77;;;18.93;;
4575;SDS011;2300;51.874;8.430;2023-01-10T04:49:01;31.47;;;17.03;;
4575;SDS011;2300;51.874;8.430;2023-01-10T04:51:28;29.50;;;17.30;;
4575;SDS011;2300;51.874;8.430;2023-01-10T04:53:54;31.37;;;15.87;;
4575;SDS011;2300;51.874;8.430;2023-01-10T04:56:21;27.40;;;15.93;;
4575;SDS011;2300;51.874;8.430;2023-01-10T04:58:49;29.20;;;15.27;;
4575;SDS011;2300;51.874;8.430;2023-01-10T05:01:18;28.83;;;14.43;;
4575;SDS011;2300;51.874;8.430;2023-01-10T05:03:46;32.07;;;14.17;;
4575;SDS011;2300;51.874;8.430;2023-01-10T05:06:13;27.20;;;16.60;;
4575;SDS011;2300;51.874;8.430;2023-01-10T05:08:40;22.97;;;14.30;;
4575;SDS011;2300;51.874;8.430;2023-01-10T05:11:07;27.47;;;14.17;;
4575;SDS011;2300;51.874;8.430;2023-01-10T05:13:34;27.80;;;14.77;;
4575;SDS011;2300;51.874;8.430;2023-01-10T05:16:01;24.53;;;14.73;;
4575;SDS011;2300;51.874;8.430;2023-01-10T05:18:28;22.13;;;12.93;;
4575;SDS011;2300;51.874;8.430;2023-01-10T05:20:58;26.90;;;16.70;;
4575;SDS011;2300;51.874;8.430;2023-01-10T05:23:26;31.23;;;14.83;;
4575;SDS011;2300;51.874;8.430;2023-01-10T05:25:52;35.00;;;30.13;;
4575;SDS011;2300;51.874;8.430;2023-01-10T05:28:21;24.70;;;16.03;;
4575;SDS011;2300;51.874;8.430;2023-01-10T05:30:47;29.77;;;13.00;;
4575;SDS011;2300;51.874;8.430;2023-01-10T05:33:18;24.43;;;14.87;;
4575;SDS011;2300;51.874;8.430;2023-01-10T05:35:44;29.10;;;20.13;;
4575;SDS011;2300;51.874;8.430;2023-01-10T05:38:11;33.17;;;13.93;;
4575;SDS011;2300;51.874;8.430;2023-01-10T05:40:37;30.87;;;19.93;;
4575;SDS011;2300;51.874;8.430;2023-01-10T05:43:03;27.10;;;17.37;;
4575;SDS011;2300;51.874;8.430;2023-01-10T05:45:30;27.70;;;9.80;;
4575;SDS011;2300;51.874;8.430;2023-01-10T05:47:56;27.00;;;15.10;;
4575;SDS011;2300;51.874;8.430;2023-01-10T05:50:24;27.50;;;13.33;;
4575;SDS011;2300;51.874;8.430;2023-01-10T05:52:50;30.03;;;13.20;;
4575;SDS011;2300;51.874;8.430;2023-01-10T05:55:17;27.83;;;13.60;;
4575;SDS011;2300;51.874;8.430;2023-01-10T05:57:43;24.40;;;12.23;;
4575;SDS011;2300;51.874;8.430;2023-01-10T06:00:10;29.53;;;14.77;;
4575;SDS011;2300;51.874;8.430;2023-01-10T06:02:37;29.83;;;19.93;;
4575;SDS011;2300;51.874;8.430;2023-01-10T06:05:05;28.70;;;16.83;;
4575;SDS011;2300;51.874;8.430;2023-01-10T06:07:33;26.63;;;12.20;;
4575;SDS011;2300;51.874;8.430;2023-01-10T06:09:59;27.17;;;13.30;;
4575;SDS011;2300;51.874;8.430;2023-01-10T06:12:25;27.23;;;13.57;;
4575;SDS011;2300;51.874;8.430;2023-01-10T06:14:52;23.53;;;17.27;;
4575;SDS011;2300;51.874;8.430;2023-01-10T06:17:18;28.53;;;15.07;;
4575;SDS011;2300;51.874;8.430;2023-01-10T06:19:45;30.33;;;17.37;;
4575;SDS011;2300;51.874;8.430;2023-01-10T06:22:11;34.63;;;18.77;;
4575;SDS011;2300;51.874;8.430;2023-01-10T06:24:39;30.40;;;18.83;;
4575;SDS011;2300;51.874;8.430;2023-01-10T06:27:06;29.53;;;20.00;;
4575;SDS011;2300;51.874;8.430;2023-01-10T06:29:32;25.90;;;14.13;;
4575;SDS011;2300;51.874;8.430;2023-01-10T06:31:59;29.07;;;20.63;;
4575;SDS011;2300;51.874;8.430;2023-01-10T06:34:25;29.63;;;20.57;;
4575;SDS011;2300;51.874;8.430;2023-01-10T06:36:52;26.60;;;13.90;;
4575;SDS011;2300;51.874;8.430;2023-01-10T06:39:18;19.87;;;13.83;;
4575;SDS011;2300;51.874;8.430;2023-01-10T06:41:46;32.43;;;14.47;;
4575;SDS011;2300;51.874;8.430;2023-01-10T06:44:12;31.50;;;17.50;;
4575;SDS011;2300;51.874;8.430;2023-01-10T06:46:38;25.40;;;15.03;;
4575;SDS011;2300;51.874;8.430;2023-01-10T06:49:05;27.60;;;15.73;;
4575;SDS011;2300;51.874;8.430;2023-01-10T06:51:32;21.43;;;12.93;;
4575;SDS011;2300;51.874;8.430;2023-01-10T06:53:59;23.80;;;15.90;;
4575;SDS011;2300;51.874;8.430;2023-01-10T06:56:25;26.77;;;16.90;;
4575;SDS011;2300;51.874;8.430;2023-01-10T06:58:53;24.40;;;18.10;;
4575;SDS011;2300;51.874;8.430;2023-01-10T07:01:19;27.83;;;17.60;;
4575;SDS011;2300;51.874;8.430;2023-01-10T07:03:47;31.03;;;15.40;;
4575;SDS011;2300;51.874;8.430;2023-01-10T07:06:13;28.57;;;13.63;;
4575;SDS011;2300;51.874;8.430;2023-01-10T07:08:40;27.30;;;15.90;;
4575;SDS011;2300;51.874;8.430;2023-01-10T07:11:09;31.23;;;16.93;;
4575;SDS011;2300;51.874;8.430;2023-01-10T07:13:37;24.93;;;14.60;;
4575;SDS011;2300;51.874;8.430;2023-01-10T07:16:06;26.80;;;18.17;;
4575;SDS011;2300;51.874;8.430;2023-01-10T07:18:34;23.73;;;15.10;;
4575;SDS011;2300;51.874;8.430;2023-01-10T07:21:01;25.23;;;14.53;;
4575;SDS011;2300;51.874;8.430;2023-01-10T07:23:28;33.67;;;17.77;;
4575;SDS011;2300;51.874;8.430;2023-01-10T07:25:55;29.27;;;23.97;;
4575;SDS011;2300;51.874;8.430;2023-01-10T07:28:22;27.63;;;13.67;;
4575;SDS011;2300;51.874;8.430;2023-01-10T07:30:49;23.50;;;13.83;;
4575;SDS011;2300;51.874;8.430;2023-01-10T07:33:17;31.20;;;14.57;;
4575;SDS011;2300;51.874;8.430;2023-01-10T07:35:43;25.93;;;13.53;;
4575;SDS011;2300;51.874;8.430;2023-01-10T07:38:09;33.23;;;14.83;;
4575;SDS011;2300;51.874;8.430;2023-01-10T07:40:36;31.27;;;13.87;;
4575;SDS011;2300;51.874;8.430;2023-01-10T07:43:02;23.13;;;13.63;;
4575;SDS011;2300;51.874;8.430;2023-01-10T07:45:29;27.63;;;12.67;;
4575;SDS011;2300;51.874;8.430;2023-01-10T07:47:56;22.87;;;12.83;;
4575;SDS011;2300;51.874;8.430;2023-01-10T07:50:24;39.87;;;24.30;;
4575;SDS011;2300;51.874;8.430;2023-01-10T07:52:51;31.33;;;26.27;;
4575;SDS011;2300;51.874;8.430;2023-01-10T07:55:17;27.33;;;15.47;;
4575;SDS011;2300;51.874;8.430;2023-01-10T07:57:44;24.37;;;17.87;;
4575;SDS011;2300;51.874;8.430;2023-01-10T08:00:11;23.30;;;16.93;;
4575;SDS011;2300;51.874;8.430;2023-01-10T08:02:38;32.13;;;20.43;;
4575;SDS011;2300;51.874;8.430;2023-01-10T08:05:04;25.90;;;17.20;;
4575;SDS011;2300;51.874;8.430;2023-01-10T08:07:32;33.70;;;16.83;;
4575;SDS011;2300;51.874;8.430;2023-01-10T08:09:59;35.77;;;18.90;;
4575;SDS011;2300;51.874;8.430;2023-01-10T08:12:25;25.80;;;18.47;;
4575;SDS011;2300;51.874;8.430;2023-01-10T08:14:52;25.77;;;19.77;;
4575;SDS011;2300;51.874;8.430;2023-01-10T08:17:18;30.97;;;19.17;;
4575;SDS011;2300;51.874;8.430;2023-01-10T08:19:45;21.97;;;14.40;;
4575;SDS011;2300;51.874;8.430;2023-01-10T08:22:11;25.53;;;17.47;;
4575;SDS011;2300;51.874;8.430;2023-01-10T08:24:39;27.30;;;16.30;;
4575;SDS011;2300;51.874;8.430;2023-01-10T08:27:06;20.77;;;15.50;;
4575;SDS011;2300;51.874;8.430;2023-01-10T08:29:32;30.57;;;16.90;;
4575;SDS011;2300;51.874;8.430;2023-01-10T08:31:59;27.77;;;17.63;;
4575;SDS011;2300;51.874;8.430;2023-01-10T08:34:25;21.53;;;12.63;;
4575;SDS011;2300;51.874;8.430;2023-01-10T08:36:52;28.87;;;14.40;;
4575;SDS011;2300;51.874;8.430;2023-01-10T08:39:19;27.00;;;19.23;;
4575;SDS011;2300;51.874;8.430;2023-01-10T08:41:48;30.53;;;14.17;;
4575;SDS011;2300;51.874;8.430;2023-01-10T08:44:14;31.53;;;19.40;;
4575;SDS011;2300;51.874;8.430;2023-01-10T08:46:41;25.53;;;14.30;;
4575;SDS011;2300;51.874;8.430;2023-01-10T08:49:07;29.07;;;13.77;;
4575;SDS011;2300;51.874;8.430;2023-01-10T08:51:34;24.20;;;10.23;;
4575;SDS011;2300;51.874;8.430;2023-01-10T08:54:00;28.67;;;12.77;;
4575;SDS011;2300;51.874;8.430;2023-01-10T08:56:27;31.83;;;13.60;;
4575;SDS011;2300;51.874;8.430;2023-01-10T08:58:55;28.17;;;13.83;;
4575;SDS011;2300;51.874;8.430;2023-01-10T09:01:22;26.53;;;11.10;;
4575;SDS011;2300;51.874;8.430;2023-01-10T09:03:48;26.63;;;11.40;;
4575;SDS011;2300;51.874;8.430;2023-01-10T09:06:15;20.93;;;11.53;;
4575;SDS011;2300;51.874;8.430;2023-01-10T09:08:41;26.70;;;11.83;;
4575;SDS011;2300;51.874;8.430;2023-01-10T09:11:08;24.97;;;11.07;;
4575;SDS011;2300;51.874;8.430;2023-01-10T09:13:34;29.20;;;11.83;;
4575;SDS011;2300;51.874;8.430;2023-01-10T09:16:02;22.20;;;12.83;;
4575;SDS011;2300;51.874;8.430;2023-01-10T09:18:29;29.83;;;13.17;;
4575;SDS011;2300;51.874;8.430;2023-01-10T09:20:56;27.60;;;11.73;;
4575;SDS011;2300;51.874;8.430;2023-01-10T09:23:22;28.97;;;14.43;;
4575;SDS011;2300;51.874;8.430;2023-01-10T09:25:49;25.90;;;12.13;;
4575;SDS011;2300;51.874;8.430;2023-01-10T09:28:17;33.33;;;13.97;;
4575;SDS011;2300;51.874;8.430;2023-01-10T09:30:44;29.47;;;12.60;;
4575;SDS011;2300;51.874;8.430;2023-01-10T09:33:13;28.17;;;15.30;;
4575;SDS011;2300;51.874;8.430;2023-01-10T09:35:40;29.07;;;13.43;;
4575;SDS011;2300;51.874;8.430;2023-01-10T09:38:09;27.33;;;14.53;;
4575;SDS011;2300;51.874;8.430;2023-01-10T09:40:42;31.27;;;13.23;;
4575;SDS011;2300;51.874;8.430;2023-01-10T09:43:21;27.60;;;13.97;;
4575;SDS011;2300;51.874;8.430;2023-01-10T09:45:57;33.43;;;13.60;;
4575;SDS011;2300;51.874;8.430;2023-01-10T09:48:31;29.87;;;13.63;;
4575;SDS011;2300;51.874;8.430;2023-01-10T09:51:11;28.17;;;12.57;;
4575;SDS011;2300;51.874;8.430;2023-01-10T09:53:57;27.93;;;12.43;;
4575;SDS011;2300;51.874;8.430;2023-01-10T09:56:27;31.17;;;14.10;;
4575;SDS011;2300;51.874;8.430;2023-01-10T09:58:54;31.07;;;16.43;;
4575;SDS011;2300;51.874;8.430;2023-01-10T10:01:24;35.43;;;20.80;;
4575;SDS011;2300;51.874;8.430;2023-01-10T10:03:57;34.37;;;21.70;;
4575;SDS011;2300;51.874;8.430;2023-01-10T10:06:30;33.93;;;17.67;;
4575;SDS011;2300;51.874;8.430;2023-01-10T10:08:58;30.70;;;14.43;;
4575;SDS011;2300;51.874;8.430;2023-01-10T10:11:37;33.03;;;13.93;;
4575;SDS011;2300;51.874;8.430;2023-01-10T10:14:15;30.57;;;12.97;;
4575;SDS011;2300;51.874;8.430;2023-01-10T10:16:53;45.37;;;40.40;;
4575;SDS011;2300;51.874;8.430;2023-01-10T10:19:31;36.17;;;13.83;;
4575;SDS011;2300;51.874;8.430;2023-01-10T10:22:11;35.73;;;13.90;;
4575;SDS011;2300;51.874;8.430;2023-01-10T10:24:46;28.67;;;13.93;;
4575;SDS011;2300;51.874;8.430;2023-01-10T10:27:35;33.53;;;13.37;;
4575;SDS011;2300;51.874;8.430;2023-01-10T10:30:12;35.57;;;17.03;;
4575;SDS011;2300;51.874;8.430;2023-01-10T10:35:43;27.97;;;14.93;;
4575;SDS011;2300;51.874;8.430;2023-01-10T10:38:17;31.27;;;14.13;;
4575;SDS011;2300;51.874;8.430;2023-01-10T10:40:48;34.90;;;13.90;;
4575;SDS011;2300;51.874;8.430;2023-01-10T10:43:17;41.93;;;15.83;;
4575;SDS011;2300;51.874;8.430;2023-01-10T10:45:47;36.17;;;14.57;;
4575;SDS011;2300;51.874;8.430;2023-01-10T10:48:19;29.80;;;13.10;;
4575;SDS011;2300;51.874;8.430;2023-01-10T10:50:51;33.53;;;20.50;;
4575;SDS011;2300;51.874;8.430;2023-01-10T10:53:23;37.77;;;17.37;;
4575;SDS011;2300;51.874;8.430;2023-01-10T10:55:50;24.20;;;14.77;;
4575;SDS011;2300;51.874;8.430;2023-01-10T10:58:18;32.30;;;17.40;;
4575;SDS011;2300;51.874;8.430;2023-01-10T11:00:44;36.73;;;23.20;;
4575;SDS011;2300;51.874;8.430;2023-01-10T11:03:18;34.30;;;16.53;;
4575;SDS011;2300;51.874;8.430;2023-01-10T11:05:53;28.23;;;16.30;;
4575;SDS011;2300;51.874;8.430;2023-01-10T11:08:21;37.20;;;19.13;;
4575;SDS011;2300;51.874;8.430;2023-01-10T11:10:48;36.23;;;15.80;;
4575;SDS011;2300;51.874;8.430;2023-01-10T11:13:19;35.13;;;16.47;;
4575;SDS011;2300;51.874;8.430;2023-01-10T11:15:55;29.10;;;15.53;;
4575;SDS011;2300;51.874;8.430;2023-01-10T11:18:23;38.43;;;16.10;;
4575;SDS011;2300;51.874;8.430;2023-01-10T11:20:51;31.37;;;22.30;;
4575;SDS011;2300;51.874;8.430;2023-01-10T11:23:31;27.37;;;14.30;;
4575;SDS011;2300;51.874;8.430;2023-01-10T11:26:06;28.47;;;14.67;;
4575;SDS011;2300;51.874;8.430;2023-01-10T11:28:33;34.80;;;21.03;;
4575;SDS011;2300;51.874;8.430;2023-01-10T11:31:02;28.23;;;16.67;;
4575;SDS011;2300;51.874;8.430;2023-01-10T11:33:29;33.97;;;13.50;;
4575;SDS011;2300;51.874;8.430;2023-01-10T11:36:01;31.80;;;14.43;;
4575;SDS011;2300;51.874;8.430;2023-01-10T11:38:30;30.50;;;11.83;;
4575;SDS011;2300;51.874;8.430;2023-01-10T11:40:58;26.10;;;12.40;;
4575;SDS011;2300;51.874;8.430;2023-01-10T11:43:27;28.73;;;14.43;;
4575;SDS011;2300;51.874;8.430;2023-01-10T11:45:57;27.73;;;12.97;;
4575;SDS011;2300;51.874;8.430;2023-01-10T11:48:27;28.93;;;12.77;;
4575;SDS011;2300;51.874;8.430;2023-01-10T11:51:13;32.60;;;24.63;;
4575;SDS011;2300;51.874;8.430;2023-01-10T11:53:44;24.93;;;13.40;;
4575;SDS011;2300;51.874;8.430;2023-01-10T11:56:11;30.30;;;19.07;;
4575;SDS011;2300;51.874;8.430;2023-01-10T11:58:47;26.50;;;16.37;;
4575;SDS011;2300;51.874;8.430;2023-01-10T12:01:27;47.53;;;26.07;;
4575;SDS011;2300;51.874;8.430;2023-01-10T12:03:56;26.77;;;15.87;;
4575;SDS011;2300;51.874;8.430;2023-01-10T12:06:25;22.70;;;13.87;;
4575;SDS011;2300;51.874;8.430;2023-01-10T12:08:53;23.87;;;18.90;;
4575;SDS011;2300;51.874;8.430;2023-01-10T12:11:24;23.77;;;14.07;;
4575;SDS011;2300;51.874;8.430;2023-01-10T12:13:54;31.13;;;12.53;;
4575;SDS011;2300;51.874;8.430;2023-01-10T12:16:23;28.97;;;13.90;;
4575;SDS011;2300;51.874;8.430;2023-01-10T12:18:51;29.23;;;14.53;;
4575;SDS011;2300;51.874;8.430;2023-01-10T12:21:25;24.33;;;13.73;;
4575;SDS011;2300;51.874;8.430;2023-01-10T12:23:59;26.53;;;13.33;;
4575;SDS011;2300;51.874;8.430;2023-01-10T12:26:30;32.77;;;15.53;;
4575;SDS011;2300;51.874;8.430;2023-01-10T12:28:58;33.10;;;18.03;;
4575;SDS011;2300;51.874;8.430;2023-01-10T12:31:32;23.43;;;14.90;;
4575;SDS011;2300;51.874;8.430;2023-01-10T12:34:03;29.20;;;16.87;;
4575;SDS011;2300;51.874;8.430;2023-01-10T12:36:40;21.83;;;10.93;;
4575;SDS011;2300;51.874;8.430;2023-01-10T12:39:14;30.33;;;13.83;;
4575;SDS011;2300;51.874;8.430;2023-01-10T12:41:58;26.30;;;13.87;;
4575;SDS011;2300;51.874;8.430;2023-01-10T12:44:52;28.10;;;14.83;;
4575;SDS011;2300;51.874;8.430;2023-01-10T12:47:27;25.87;;;15.03;;
4575;SDS011;2300;51.874;8.430;2023-01-10T12:49:58;35.67;;;21.60;;
4575;SDS011;2300;51.874;8.430;2023-01-10T12:52:33;25.40;;;16.43;;
4575;SDS011;2300;51.874;8.430;2023-01-10T12:55:11;25.97;;;11.30;;
4575;SDS011;2300;51.874;8.430;2023-01-10T12:57:39;29.97;;;16.90;;
4575;SDS011;2300;51.874;8.430;2023-01-10T13:00:14;28.93;;;12.67;;
4575;SDS011;2300;51.874;8.430;2023-01-10T13:02:48;33.30;;;22.63;;
4575;SDS011;2300;51.874;8.430;2023-01-10T13:05:18;25.57;;;12.93;;
4575;SDS011;2300;51.874;8.430;2023-01-10T13:07:50;28.63;;;21.20;;
4575;SDS011;2300;51.874;8.430;2023-01-10T13:10:20;29.60;;;17.23;;
4575;SDS011;2300;51.874;8.430;2023-01-10T13:12:50;22.67;;;13.33;;
4575;SDS011;2300;51.874;8.430;2023-01-10T13:15:21;25.07;;;12.73;;
4575;SDS011;2300;51.874;8.430;2023-01-10T13:17:52;29.33;;;19.40;;
4575;SDS011;2300;51.874;8.430;2023-01-10T13:20:25;20.87;;;16.50;;
4575;SDS011;2300;51.874;8.430;2023-01-10T13:23:11;24.17;;;17.30;;
4575;SDS011;2300;51.874;8.430;2023-01-10T13:25:52;17.30;;;9.50;;
4575;SDS011;2300;51.874;8.430;2023-01-10T13:28:21;26.80;;;13.80;;
4575;SDS011;2300;51.874;8.430;2023-01-10T13:30:51;25.00;;;11.53;;
4575;SDS011;2300;51.874;8.430;2023-01-10T13:33:19;27.37;;;16.73;;
4575;SDS011;2300;51.874;8.430;2023-01-10T13:35:48;25.80;;;9.50;;
4575;SDS011;2300;51.874;8.430;2023-01-10T13:38:18;22.43;;;11.43;;
4575;SDS011;2300;51.874;8.430;2023-01-10T13:40:57;23.97;;;17.47;;
4575;SDS011;2300;51.874;8.430;2023-01-10T13:46:38;26.23;;;21.07;;
4575;SDS011;2300;51.874;8.430;2023-01-10T13:55:24;19.23;;;9.17;;
4575;SDS011;2300;51.874;8.430;2023-01-10T13:57:55;22.20;;;7.03;;
4575;SDS011;2300;51.874;8.430;2023-01-10T14:00:42;18.20;;;8.47;;
4575;SDS011;2300;51.874;8.430;2023-01-10T14:03:42;21.47;;;7.67;;
4575;SDS011;2300;51.874;8.430;2023-01-10T14:06:17;16.43;;;8.07;;
4575;SDS011;2300;51.874;8.430;2023-01-10T14:08:47;22.03;;;9.30;;
4575;SDS011;2300;51.874;8.430;2023-01-10T14:11:17;23.37;;;8.70;;
4575;SDS011;2300;51.874;8.430;2023-01-10T14:13:46;22.20;;;10.53;;
4575;SDS011;2300;51.874;8.430;2023-01-10T14:16:27;19.63;;;7.77;;
4575;SDS011;2300;51.874;8.430;2023-01-10T14:18:56;15.97;;;7.73;;
4575;SDS011;2300;51.874;8.430;2023-01-10T14:21:24;19.57;;;11.70;;
4575;SDS011;2300;51.874;8.430;2023-01-10T14:23:52;19.20;;;9.20;;
4575;SDS011;2300;51.874;8.430;2023-01-10T14:26:24;22.30;;;8.63;;
4575;SDS011;2300;51.874;8.430;2023-01-10T14:28:55;23.83;;;9.87;;
4575;SDS011;2300;51.874;8.430;2023-01-10T14:31:24;19.30;;;7.13;;
4575;SDS011;2300;51.874;8.430;2023-01-10T14:33:51;15.50;;;7.93;;
4575;SDS011;2300;51.874;8.430;2023-01-10T14:36:20;21.00;;;9.57;;
4575;SDS011;2300;51.874;8.430;2023-01-10T14:38:51;17.83;;;7.70;;
4575;SDS011;2300;51.874;8.430;2023-01-10T14:41:24;19.60;;;5.70;;
4575;SDS011;2300;51.874;8.430;2023-01-10T14:44:00;20.07;;;7.13;;
4575;SDS011;2300;51.874;8.430;2023-01-10T14:46:28;22.50;;;9.93;;
4575;SDS011;2300;51.874;8.430;2023-01-10T14:49:15;16.83;;;6.77;;
4575;SDS011;2300;51.874;8.430;2023-01-10T14:51:45;19.17;;;7.07;;
4575;SDS011;2300;51.874;8.430;2023-01-10T14:54:14;22.50;;;8.37;;
4575;SDS011;2300;51.874;8.430;2023-01-10T14:56:45;25.13;;;7.73;;
4575;SDS011;2300;51.874;8.430;2023-01-10T14:59:22;29.47;;;15.33;;
4575;SDS011;2300;51.874;8.430;2023-01-10T15:01:50;16.67;;;9.83;;
4575;SDS011;2300;51.874;8.430;2023-01-10T15:04:18;18.67;;;7.97;;
4575;SDS011;2300;51.874;8.430;2023-01-10T15:06:50;20.67;;;12.17;;
4575;SDS011;2300;51.874;8.430;2023-01-10T15:09:18;20.33;;;7.27;;
4575;SDS011;2300;51.874;8.430;2023-01-10T15:11:45;21.53;;;7.80;;
4575;SDS011;2300;51.874;8.430;2023-01-10T15:14:14;13.80;;;7.70;;
4575;SDS011;2300;51.874;8.430;2023-01-10T15:16:42;16.17;;;5.77;;
4575;SDS011;2300;51.874;8.430;2023-01-10T15:19:11;20.83;;;15.57;;
4575;SDS011;2300;51.874;8.430;2023-01-10T15:21:41;18.63;;;13.43;;
4575;SDS011;2300;51.874;8.430;2023-01-10T15:24:27;20.73;;;7.63;;
4575;SDS011;2300;51.874;8.430;2023-01-10T15:26:57;16.53;;;6.97;;
4575;SDS011;2300;51.874;8.430;2023-01-10T15:29:25;15.77;;;8.83;;